Prinsburg, Minnesota
Current Conditions -  °F | °C
As of 11:53 PM on Friday 19 Dec 2014 (Local Time) from KOVL Reporting Station
Haze Haze  
Wind Chill: 24°   Ceiling: 1300
Heat Index: 32°   Visibility: 5mi
Dew Point: 30°   Wind: 9mph
Humidity: 93%   Direction: 180°S
Pressure: 30.09"   Gusts: NA
Location:  44.93°N, 95.19°W
Report Text: KOVL 200553Z AUTO 18008KT 5SM BR OVC013 00/M01 A3009 RMK AO2
Loading
Personal Weather Stations






























Interactive Weather Map New forecast layout! Learn more

10-Day Weather Forecast

Advertisements
Track Severe Weather on mobile